Newcastle Airport
YWLM : now visible

Airfield :











YOU CAN JOIN US ON...

 
LOGIN :

Register | Disclaimer

   EN    FR    IT 

 









Legend :    VFR   Marginal VFR   IFR   Intensive IFR   Very Intensive IFR
Visi :
Ceiling :
>= 8 km
>= 3000ft
5 to 8 km
1000 to 3000 ft
1500m to 5 km
500 to 1000 ft
800 to 1500m
200 to 500 ft
< 800m
< 200 ft
Symbols :   Thunderstorms  Fog  Heavy snow  Heavy precipitations  Wind > 20 kt






- Airport Elevation : 31 ft
- IATA code : NTL


YWLM - Newcastle

CURRENT METAR :
  • 101246Z AUTO 28007KT 9999 -SHRA SCT024 SCT037 BKN063 17/17 Q1012 RESHRA

EXPIRED METARs :
  • 101230Z AUTO 28011KT 4800 +RA SCT024 BKN037 OVC084 18/17 Q1012
  • 101228Z AUTO 27010G20KT 6000 +RA SCT024 SCT034 BKN041 18/17 Q1012
  • 101200Z AUTO 30006KT 9999 // SCT068 SCT079 OVC092 17/17 Q1012
  • 101130Z AUTO 31006KT 9999 // OVC092 18/17 Q1012
  • 101100Z AUTO 34005KT 9999 // SCT100 17/17 Q1012
  • 101030Z AUTO 32005KT 9999 // BKN039 16/15 Q1012
  • 101000Z AUTO 00000KT 9999 // NCD 16/16 Q1012

TAF TAF YWLM
Valid from the 10 at 12:00 until the 11 at 12:00 UTC


101103Z 1012/1112 29008KT CAVOK
FM101900 30018KT CAVOK
FM110400 25020G30KT CAVOK
FM110900 25015KT CAVOK



MET'MAP, your aeronautical weather chart ! - Copyright ORBIFLY December 2007 - Disclaimer

ORBIFLY MET'MAP TEAM :

Programming & Development : Alexandra Zaïnal
Concept & original design : Baudouin d'Aumeries
Assistance for programming : Marc-Olivier Méhu
Technical & hardware support : Manuel Goepfert

Contact : metmap@orbifly.com




SOURCES & CREDITS :

   NOAA       Earth
Advisory